Latest Weather Observations for Lady Elliot Island

IDQ60801

Issued at 7:22 am EST Wednesday 23 October 2019 (issued every 10 minutes, with the page automatically refreshed every 10 minutes)

About weather observations | Map of weather stations | Latest weather observations for QLD | Other Formats
Station Details ID: 039059 Name: LADY ELLIOT ISLAND Lat: -24.11 Lon: 152.72 Height: 3.6 m
Data from the previous 72 hours. | See also: Recent months at Lady Elliot Island
Date/Time
EST
Temp
°C
App
Temp
°C
Dew
Point
°C
Rel
Hum
%
Delta-T
°C
Wind Press
QNH
hPa
Press
MSL
hPa
Rain since
9am
mm
Dir  Spd
km/h
Gust
km/h
Spd
kts
Gust
kts
23/07:00am 22.6 18.7 14.4 60 4.8 ESE 28 35 15 19 1022.2 1022.2 0.0
23/06:30am 22.0 18.3 14.9 64 4.2 ESE 28 37 15 20 1021.9 1021.9 0.0
23/06:00am 21.1 16.8 14.5 66 3.8 ESE 30 39 16 21 1021.6 1021.6 0.0
23/05:30am 21.0 16.5 13.7 63 4.2 ESE 30 37 16 20 1021.5 1021.5 0.0
23/05:00am 20.9 16.9 14.1 65 3.9 ESE 28 35 15 19 1021.3 1021.3 0.0
23/04:30am 20.8 16.8 14.0 65 3.9 ESE 28 37 15 20 1021.2 1021.2 0.0
23/04:00am 20.8 16.8 14.2 66 3.8 ESE 28 35 15 19 1021.1 1021.1 0.0
23/03:30am 20.8 16.8 14.0 65 3.9 ESE 28 33 15 18 1021.0 1021.0 0.0
23/03:00am 20.8 16.8 14.2 66 3.8 ESE 28 35 15 19 1021.0 1021.0 0.0
23/02:30am 20.7 17.2 14.6 68 3.6 ESE 26 33 14 18 1021.3 1021.3 0.0
23/02:00am 20.9 17.0 14.5 67 3.7 ESE 28 35 15 19 1021.4 1021.4 0.0
23/01:30am 20.8 16.5 14.5 67 3.7 ESE 30 37 16 20 1021.6 1021.6 0.0
23/01:00am 20.8 17.0 14.7 68 3.6 ESE 28 35 15 19 1021.8 1021.8 0.0
23/12:30am 21.0 16.9 13.9 64 4.1 ESE 28 37 15 20 1022.1 1022.1 0.0
23/12:00am 21.1 16.4 14.3 65 3.9 ESE 32 39 17 21 1022.3 1022.3 0.0
 
Date/Time
EST
Temp
°C
App
Temp
°C
Dew
Point
°C
Rel
Hum
%
Delta-T
°C
Wind Press
QNH
hPa
Press
MSL
hPa
Rain since
9am
mm
Dir  Spd
km/h
Gust
km/h
Spd
kts
Gust
kts
22/11:30pm 21.1 16.5 15.2 69 3.5 ESE 33 43 18 23 1022.3 1022.3 0.0
22/11:00pm 21.2 16.7 15.5 70 3.4 ESE 33 43 18 23 1022.4 1022.4 0.0
22/10:30pm 21.3 16.9 15.6 70 3.4 ESE 33 43 18 23 1022.7 1022.7 0.0
22/10:00pm 21.3 16.4 15.4 69 3.5 ESE 35 44 19 24 1022.8 1022.8 0.0
22/09:30pm 21.4 16.6 15.7 70 3.4 ESE 35 44 19 24 1022.7 1022.7 0.0
22/09:00pm 21.5 16.9 15.1 67 3.8 ESE 33 43 18 23 1022.8 1022.8 0.0
22/08:30pm 21.5 17.1 15.6 69 3.5 ESE 33 41 18 22 1022.8 1022.8 0.0
22/08:00pm 21.5 17.1 15.6 69 3.5 ESE 33 43 18 23 1022.6 1022.6 0.0
22/07:30pm 21.5 17.2 16.0 71 3.3 ESE 33 44 18 24 1022.5 1022.5 0.0
22/07:00pm 21.6 17.6 16.1 71 3.3 ESE 32 43 17 23 1022.4 1022.4 0.0
22/06:30pm 21.7 17.7 16.2 71 3.3 ESE 32 41 17 22 1022.2 1022.2 0.0
22/06:00pm 21.8 17.9 15.6 68 3.7 ESE 30 35 16 19 1021.9 1021.9 0.0
22/05:30pm 21.9 17.6 15.3 66 3.9 ESE 32 39 17 21 1021.4 1021.4 0.0
22/05:00pm 22.4 18.4 15.3 64 4.2 ESE 30 35 16 19 1021.2 1021.2 0.0
22/04:30pm 22.6 17.8 14.7 61 4.7 ESE 33 41 18 22 1020.7 1020.7 0.0
22/04:00pm 23.0 18.5 14.8 60 4.8 ESE 32 41 17 22 1020.4 1020.4 0.0
22/03:30pm 23.6 19.0 15.1 59 5.1 ESE 33 39 18 21 1020.3 1020.3 0.0
22/03:00pm 23.9 20.0 15.4 59 5.1 ESE 30 37 16 20 1020.4 1020.4 0.0
22/02:30pm 24.2 19.6 14.6 55 5.7 ESE 32 39 17 21 1020.6 1020.6 0.0
22/02:00pm 24.7 20.3 14.2 52 6.2 ESE 30 37 16 20 1020.9 1020.9 0.0
22/01:30pm 24.8 21.0 14.6 53 6.1 ESE 28 37 15 20 1021.2 1021.2 0.0
22/01:00pm 25.3 21.8 15.6 55 5.9 ESE 28 35 15 19 1021.4 1021.4 0.0
22/12:30pm 24.8 21.1 15.1 54 5.8 ESE 28 39 15 21 1021.7 1021.7 0.0
22/12:00pm 25.3 21.2 15.0 53 6.2 ESE 30 37 16 20 1022.0 1022.0 0.0
22/11:30am 25.3 21.6 15.0 53 6.2 SE 28 37 15 20 1022.4 1022.4 0.0
22/11:00am 25.2 21.6 15.2 54 6.0 SE 28 39 15 21 1022.5 1022.5 0.0
22/10:30am 25.0 21.4 15.3 55 5.8 SE 28 37 15 20 1022.7 1022.7 0.0
22/10:00am 24.6 20.9 15.0 55 5.7 SE 28 37 15 20 1023.0 1023.0 0.0
22/09:30am 23.4 19.7 14.9 59 5.1 ESE 28 37 15 20 1023.3 1023.3 0.0
22/09:00am 23.8 20.2 16.3 63 4.6 ESE 30 39 16 21 1023.4 1023.4 0.2
22/08:30am 22.9 18.8 16.0 65 4.2 ESE 32 41 17 22 1023.3 1023.3 0.2
22/08:00am 22.8 18.8 16.6 68 3.8 ESE 33 41 18 22 1023.1 1023.1 0.2
22/07:30am 23.1 19.3 17.1 69 3.7 ESE 33 41 18 22 1022.8 1022.8 0.2
22/07:00am 22.2 18.5 16.9 72 3.2 ESE 32 39 17 21 1022.5 1022.5 0.2
22/06:30am 21.6 18.0 16.3 72 3.2 ESE 30 39 16 21 1022.3 1022.3 0.2
22/06:00am 21.3 17.2 16.0 72 3.2 ESE 32 41 17 22 1022.1 1022.1 0.2
22/05:30am 21.0 17.0 16.2 74 2.9 ESE 32 41 17 22 1021.8 1021.8 0.2
22/05:00am 21.1 17.1 16.3 74 2.9 SE 32 41 17 22 1021.6 1021.6 0.2
22/04:30am 21.1 17.4 15.9 72 3.1 SE 30 39 16 21 1021.3 1021.3 0.2
22/04:00am 21.1 16.8 15.9 72 3.1 SE 33 41 18 22 1021.1 1021.1 0.2
22/03:30am 21.1 16.5 16.1 73 3.0 ESE 35 44 19 24 1021.1 1021.1 0.2
22/03:00am 21.1 16.2 16.3 74 2.9 ESE 37 44 20 24 1021.1 1021.1 0.2
22/02:30am 21.2 15.8 16.0 72 3.1 ESE 39 46 21 25 1021.1 1021.1 0.2
22/02:00am 21.6 17.9 17.0 75 2.8 SE 32 44 17 24 1021.4 1021.4 0.2
22/01:30am 21.4 16.9 16.4 73 3.0 ESE 35 44 19 24 1021.7 1021.7 0.2
22/01:00am 21.4 16.4 16.1 72 3.2 ESE 37 46 20 25 1021.9 1021.9 0.2
22/12:30am 21.6 17.0 16.1 71 3.3 ESE 35 43 19 23 1022.4 1022.4 0.2
22/12:00am 21.8 17.6 16.1 70 3.4 SE 33 46 18 25 1022.6 1022.6 0.2
 
Date/Time
EST
Temp
°C
App
Temp
°C
Dew
Point
°C
Rel
Hum
%
Delta-T
°C
Wind Press
QNH
hPa
Press
MSL
hPa
Rain since
9am
mm
Dir  Spd
km/h
Gust
km/h
Spd
kts
Gust
kts
21/11:30pm 21.9 17.6 16.0 69 3.6 SE 33 43 18 23 1022.9 1022.9 0.2
21/11:00pm 21.9 17.5 15.7 68 3.7 SE 33 43 18 23 1022.9 1022.9 0.2
21/10:30pm 22.1 17.7 16.6 71 3.3 SE 35 44 19 24 1023.0 1023.0 0.2
21/10:00pm 22.0 16.7 16.3 70 3.4 SE 39 50 21 27 1023.0 1023.0 0.2
21/09:30pm 22.0 17.4 16.1 69 3.6 SE 35 44 19 24 1023.2 1023.2 0.2
21/09:00pm 22.1 17.6 16.4 70 3.4 SE 35 48 19 26 1023.2 1023.2 0.2
21/08:30pm 22.1 17.1 16.1 69 3.6 SE 37 46 20 25 1023.0 1023.0 0.2
21/08:00pm 22.1 17.5 16.1 69 3.6 SE 35 46 19 25 1022.6 1022.6 0.2
21/07:30pm 22.1 17.2 16.4 70 3.5 SE 37 48 20 26 1022.6 1022.6 0.2
21/07:00pm 22.1 17.3 16.6 71 3.3 SE 37 46 20 25 1022.2 1022.2 0.2
21/06:30pm 22.1 16.9 16.6 71 3.3 SE 39 48 21 26 1021.8 1021.8 0.2
21/06:00pm 22.1 16.9 16.6 71 3.3 SE 39 48 21 26 1021.3 1021.3 0.2
21/05:30pm 22.3 16.5 17.0 72 3.2 SE 43 56 23 30 1020.9 1020.9 0.2
21/05:00pm 22.7 17.3 16.9 70 3.5 SE 41 54 22 29 1020.5 1020.5 0.2
21/04:30pm 23.2 17.7 17.7 71 3.4 SE 43 54 23 29 1020.1 1020.1 0.2
21/04:00pm 23.6 18.9 17.8 70 3.6 SE 39 48 21 26 1019.8 1019.8 0.2
21/03:30pm 24.1 19.2 17.4 66 4.2 SE 39 52 21 28 1019.9 1019.9 0.2
21/03:00pm 24.2 19.6 17.9 68 3.9 SE 39 46 21 25 1020.0 1020.0 0.2
21/02:30pm 24.8 20.2 18.0 66 4.3 SE 39 50 21 27 1020.0 1020.0 0.2
21/02:00pm 24.9 20.6 17.9 65 4.4 SE 37 48 20 26 1020.1 1020.1 0.2
21/01:30pm 25.3 22.1 18.7 67 4.2 SE 33 44 18 24 1020.4 1020.4 0.2
21/01:00pm 25.1 21.9 18.5 67 4.2 SE 33 44 18 24 1020.8 1020.8 0.2
21/12:30pm 22.7 19.2 18.7 78 2.5 ESE 35 43 19 23 1020.7 1020.7 0.2
21/12:00pm 25.4 21.6 18.1 64 4.6 ESE 35 44 19 24 1021.0 1021.0 0.0
21/11:30am 25.5 21.8 18.4 65 4.5 ESE 35 41 19 22 1021.3 1021.3 0.0
21/11:00am 25.6 22.1 18.0 63 4.8 ESE 33 43 18 23 1021.3 1021.3 0.0
21/10:30am 25.3 21.7 18.5 66 4.3 ESE 35 44 19 24 1021.4 1021.4 0.0
21/10:00am 25.1 21.3 18.1 65 4.4 SE 35 46 19 25 1021.5 1021.5 0.0
21/09:30am 25.2 21.1 17.4 62 4.9 SE 35 44 19 24 1021.8 1021.8 0.0
21/09:00am 25.2 21.5 18.4 66 4.3 ESE 35 46 19 25 1021.7 1021.7 0.0
21/08:30am 25.3 22.0 19.2 69 3.9 ESE 35 46 19 25 1021.6 1021.6 0.0
21/08:00am 24.5 20.2 17.7 66 4.2 ESE 37 46 20 25 1021.3 1021.3 0.0
21/07:30am 24.0 20.0 17.7 68 3.9 ESE 35 46 19 25 1021.2 1021.2 0.0
21/07:00am 23.8 20.7 18.4 72 3.4 SE 32 44 17 24 1021.0 1021.0 0.0
21/06:30am 23.1 19.2 17.8 72 3.3 SE 35 43 19 23 1020.9 1020.9 0.0
21/06:00am 22.7 18.4 17.8 74 3.0 SE 37 46 20 25 1020.4 1020.4 0.0
21/05:30am 22.5 18.2 17.8 75 2.9 SE 37 44 20 24 1020.0 1020.0 0.0
21/05:00am 22.4 18.7 18.4 78 2.5 SE 35 44 19 24 1019.6 1019.6 0.0
21/04:30am 22.4 18.8 18.6 79 2.4 SE 35 46 19 25 1019.1 1019.1 0.0
21/04:00am 22.6 19.1 18.8 79 2.4 SE 35 46 19 25 1018.8 1018.8 0.0
21/03:30am 22.5 19.7 19.1 81 2.2 SE 32 46 17 25 1018.6 1018.6 0.0
21/03:00am 22.5 20.1 19.1 81 2.2 SSE 30 43 16 23 1018.5 1018.5 0.0
21/02:30am 22.7 20.4 19.3 81 2.2 SSE 30 39 16 21 1018.5 1018.5 0.0
21/02:00am 22.6 21.2 19.6 83 1.9 SSE 26 37 14 20 1018.4 1018.4 0.0
21/01:30am 22.6 20.7 19.4 82 2.0 SSE 28 37 15 20 1018.3 1018.3 0.0
21/01:00am 22.8 21.1 19.8 83 1.9 SSE 28 39 15 21 1018.7 1018.7 0.0
21/12:30am 22.7 21.7 19.7 83 1.9 SSE 24 35 13 19 1018.9 1018.9 0.0
21/12:00am 22.7 22.1 19.7 83 1.9 SSE 22 32 12 17 1018.9 1018.9 0.0
 
Date/Time
EST
Temp
°C
App
Temp
°C
Dew
Point
°C
Rel
Hum
%
Delta-T
°C
Wind Press
QNH
hPa
Press
MSL
hPa
Rain since
9am
mm
Dir  Spd
km/h
Gust
km/h
Spd
kts
Gust
kts
20/11:30pm 22.8 21.2 19.2 80 2.3 SE 26 35 14 19 1019.0 1019.0 0.0
20/11:00pm 22.8 21.1 19.0 79 2.4 SE 26 32 14 17 1019.3 1019.3 0.0
20/10:30pm 22.8 22.0 19.2 80 2.3 SE 22 30 12 16 1019.5 1019.5 0.0
20/10:00pm 22.7 21.1 19.1 80 2.3 SE 26 32 14 17 1019.1 1019.1 0.0
20/09:30pm 22.8 21.6 19.2 80 2.3 SE 24 33 13 18 1018.9 1018.9 0.0
20/09:00pm 22.8 20.9 19.4 81 2.2 ESE 28 37 15 20 1018.8 1018.8 0.0
20/08:30pm 22.8 20.4 19.2 80 2.3 ESE 30 37 16 20 1018.2 1018.2 0.0
20/08:00pm 22.9 20.8 19.7 82 2.0 ESE 30 39 16 21 1017.9 1017.9 0.0
20/07:30pm 23.0 20.4 19.6 81 2.2 ESE 32 41 17 22 1017.7 1017.7 0.0
20/07:00pm 23.1 20.4 19.7 81 2.2 ESE 33 41 18 22 1017.3 1017.3 0.0
20/06:30pm 23.1 19.9 19.5 80 2.3 ESE 35 43 19 23 1016.7 1016.7 0.0
20/06:00pm 23.2 20.0 18.5 75 3.0 ESE 33 41 18 22 1016.5 1016.5 0.0
20/05:30pm 23.6 20.5 17.6 69 3.7 ESE 30 41 16 22 1016.1 1016.1 0.0
20/05:00pm 24.4 23.5 19.9 76 2.9 ESE 24 30 13 16 1015.5 1015.5 0.0
20/04:30pm 24.8 25.8 21.1 80 2.4 E 17 20 9 11 1015.3 1015.3 0.0
20/04:00pm 25.2 27.9 21.3 79 2.6 NE 9 15 5 8 1014.9 1014.9 0.0
20/03:30pm 25.0 27.6 20.5 76 2.9 NNE 7 11 4 6 1014.8 1014.8 0.0
20/03:00pm 25.8 28.8 21.2 76 3.0 NE 7 9 4 5 1014.9 1014.9 0.0
20/02:30pm 26.1 29.1 21.3 75 3.2 WNW 7 15 4 8 1015.1 1015.1 0.0
20/02:00pm 26.0 28.5 21.7 77 2.9 S 11 15 6 8 1015.3 1015.3 0.0
20/01:30pm 25.5 27.4 21.4 78 2.7 SSW 13 15 7 8 1015.5 1015.5 0.0
20/01:00pm 25.1 27.2 21.0 78 2.7 S 11 15 6 8 1015.7 1015.7 0.0
20/12:30pm 25.7 27.7 21.6 78 2.7 S 13 15 7 8 1016.0 1016.0 0.0
20/12:00pm 25.5 27.5 21.6 79 2.6 S 13 17 7 9 1016.2 1016.2 0.0
20/11:30am 25.3 27.2 21.4 79 2.6 S 13 17 7 9 1016.5 1016.5 0.0
20/11:00am 25.1 26.8 21.6 81 2.3 SSW 15 19 8 10 1016.7 1016.7 0.0
20/10:30am 25.6 27.9 21.3 77 2.8 W 11 15 6 8 1017.0 1017.0 0.0
20/10:00am 24.7 26.2 20.6 78 2.7 WNW 13 17 7 9 1017.1 1017.1 0.0
20/09:30am 25.1 27.0 21.4 80 2.4 WNW 13 17 7 9 1017.2 1017.2 0.0
20/09:00am 25.1 26.8 21.6 81 2.3 WNW 15 19 8 10 1017.2 1017.2 3.0
20/08:30am 24.9 26.7 21.2 80 2.4 WNW 13 17 7 9 1017.1 1017.1 3.0
20/08:00am 24.7 26.9 21.2 81 2.3 NW 11 15 6 8 1017.1 1017.1 3.0
20/07:30am 23.7 25.8 21.0 85 1.8 NW 11 17 6 9 1017.0 1017.0 3.0

Other formats

Comma delimited format used in spreadsheet applications
http://www.bom.gov.au/fwo/IDQ60801/IDQ60801.94388.axf

JavaScript Object Notation format (JSON) in row-major order
http://www.bom.gov.au/fwo/IDQ60801/IDQ60801.94388.json

Data quality

Most of these data are generated automatically and are frequently updated. Quality checks on data are not normally performed. It is possible for incorrect values to appear. Refer to information at About Latest Weather Observations and please check the disclaimer before using these data.